sensor_id;sensor_type;location;lat;lon;timestamp;temperature;humidity
17986;DHT22;9118;48.122;11.546;2022-07-29T00:00:16;21.10;99.90
17986;DHT22;9118;48.122;11.546;2022-07-29T00:02:44;21.10;99.90
17986;DHT22;9118;48.122;11.546;2022-07-29T00:05:15;21.00;99.90
17986;DHT22;9118;48.122;11.546;2022-07-29T00:07:43;21.00;99.90
17986;DHT22;9118;48.122;11.546;2022-07-29T00:10:10;20.90;99.90
17986;DHT22;9118;48.122;11.546;2022-07-29T00:12:37;20.90;99.90
17986;DHT22;9118;48.122;11.546;2022-07-29T00:15:07;20.90;99.90
17986;DHT22;9118;48.122;11.546;2022-07-29T00:17:35;20.90;99.90
17986;DHT22;9118;48.122;11.546;2022-07-29T00:20:06;20.80;99.90
17986;DHT22;9118;48.122;11.546;2022-07-29T00:22:37;20.90;99.90
17986;DHT22;9118;48.122;11.546;2022-07-29T00:25:08;20.90;99.90
17986;DHT22;9118;48.122;11.546;2022-07-29T00:27:35;20.90;99.90
17986;DHT22;9118;48.122;11.546;2022-07-29T00:30:08;20.90;99.90
17986;DHT22;9118;48.122;11.546;2022-07-29T00:32:38;20.80;99.90
17986;DHT22;9118;48.122;11.546;2022-07-29T00:35:06;20.80;99.90
17986;DHT22;9118;48.122;11.546;2022-07-29T00:37:50;20.80;99.90
17986;DHT22;9118;48.122;11.546;2022-07-29T00:40:18;20.90;99.90
17986;DHT22;9118;48.122;11.546;2022-07-29T00:42:47;20.90;99.90
17986;DHT22;9118;48.122;11.546;2022-07-29T00:45:20;20.90;99.90
17986;DHT22;9118;48.122;11.546;2022-07-29T00:47:47;20.90;99.90
17986;DHT22;9118;48.122;11.546;2022-07-29T00:50:15;21.00;99.90
17986;DHT22;9118;48.122;11.546;2022-07-29T00:52:42;21.00;99.90
17986;DHT22;9118;48.122;11.546;2022-07-29T00:55:11;21.00;99.90
17986;DHT22;9118;48.122;11.546;2022-07-29T00:57:40;21.00;99.90
17986;DHT22;9118;48.122;11.546;2022-07-29T01:00:10;21.00;99.90
17986;DHT22;9118;48.122;11.546;2022-07-29T01:02:40;21.00;99.90
17986;DHT22;9118;48.122;11.546;2022-07-29T01:05:08;21.00;99.90
17986;DHT22;9118;48.122;11.546;2022-07-29T01:07:36;21.00;99.90
17986;DHT22;9118;48.122;11.546;2022-07-29T01:10:13;21.10;99.90
17986;DHT22;9118;48.122;11.546;2022-07-29T01:12:43;21.10;99.90
17986;DHT22;9118;48.122;11.546;2022-07-29T01:15:11;21.10;99.90
17986;DHT22;9118;48.122;11.546;2022-07-29T01:17:43;21.10;99.90
17986;DHT22;9118;48.122;11.546;2022-07-29T01:20:16;21.10;99.90
17986;DHT22;9118;48.122;11.546;2022-07-29T01:23:11;21.10;99.90
17986;DHT22;9118;48.122;11.546;2022-07-29T01:26:04;21.10;99.90
17986;DHT22;9118;48.122;11.546;2022-07-29T01:29:04;21.10;99.90
17986;DHT22;9118;48.122;11.546;2022-07-29T01:31:42;21.20;99.90
17986;DHT22;9118;48.122;11.546;2022-07-29T01:34:14;21.10;99.90
17986;DHT22;9118;48.122;11.546;2022-07-29T01:36:45;21.20;99.90
17986;DHT22;9118;48.122;11.546;2022-07-29T01:39:19;21.20;99.90
17986;DHT22;9118;48.122;11.546;2022-07-29T01:41:56;21.10;99.90
17986;DHT22;9118;48.122;11.546;2022-07-29T01:44:32;21.10;99.90
17986;DHT22;9118;48.122;11.546;2022-07-29T01:47:05;21.10;99.90
17986;DHT22;9118;48.122;11.546;2022-07-29T01:49:43;21.20;99.90
17986;DHT22;9118;48.122;11.546;2022-07-29T01:52:18;21.10;99.90
17986;DHT22;9118;48.122;11.546;2022-07-29T01:54:51;21.10;99.90
17986;DHT22;9118;48.122;11.546;2022-07-29T01:57:23;21.10;99.90
17986;DHT22;9118;48.122;11.546;2022-07-29T01:59:54;21.00;99.90
17986;DHT22;9118;48.122;11.546;2022-07-29T02:02:26;21.00;99.90
17986;DHT22;9118;48.122;11.546;2022-07-29T02:04:55;21.00;99.90
17986;DHT22;9118;48.122;11.546;2022-07-29T02:07:26;21.00;99.90
17986;DHT22;9118;48.122;11.546;2022-07-29T02:09:56;21.00;99.90
17986;DHT22;9118;48.122;11.546;2022-07-29T02:12:25;21.00;99.90
17986;DHT22;9118;48.122;11.546;2022-07-29T02:14:58;21.00;99.90
17986;DHT22;9118;48.122;11.546;2022-07-29T02:17:29;20.90;99.90
17986;DHT22;9118;48.122;11.546;2022-07-29T02:20:00;20.90;99.90
17986;DHT22;9118;48.122;11.546;2022-07-29T02:22:30;20.90;99.90
17986;DHT22;9118;48.122;11.546;2022-07-29T02:24:58;20.80;99.90
17986;DHT22;9118;48.122;11.546;2022-07-29T02:27:27;20.80;99.90
17986;DHT22;9118;48.122;11.546;2022-07-29T02:29:58;20.80;99.90
17986;DHT22;9118;48.122;11.546;2022-07-29T02:32:28;20.80;99.90
17986;DHT22;9118;48.122;11.546;2022-07-29T02:34:58;20.70;99.90
17986;DHT22;9118;48.122;11.546;2022-07-29T02:37:27;20.70;99.90
17986;DHT22;9118;48.122;11.546;2022-07-29T02:39:55;20.60;99.90
17986;DHT22;9118;48.122;11.546;2022-07-29T02:42:26;20.60;99.90
17986;DHT22;9118;48.122;11.546;2022-07-29T02:44:57;20.60;99.90
17986;DHT22;9118;48.122;11.546;2022-07-29T02:47:36;20.60;99.90
17986;DHT22;9118;48.122;11.546;2022-07-29T02:50:08;20.60;99.90
17986;DHT22;9118;48.122;11.546;2022-07-29T02:52:41;20.60;99.90
17986;DHT22;9118;48.122;11.546;2022-07-29T02:55:18;20.60;99.90
17986;DHT22;9118;48.122;11.546;2022-07-29T02:57:49;20.50;99.90
17986;DHT22;9118;48.122;11.546;2022-07-29T03:00:21;20.50;99.90
17986;DHT22;9118;48.122;11.546;2022-07-29T03:02:52;20.40;99.90
17986;DHT22;9118;48.122;11.546;2022-07-29T03:05:22;20.40;99.90
17986;DHT22;9118;48.122;11.546;2022-07-29T03:07:54;20.40;99.90
17986;DHT22;9118;48.122;11.546;2022-07-29T03:10:25;20.30;99.90
17986;DHT22;9118;48.122;11.546;2022-07-29T03:12:54;20.30;99.90
17986;DHT22;9118;48.122;11.546;2022-07-29T03:15:27;20.30;99.90
17986;DHT22;9118;48.122;11.546;2022-07-29T03:17:55;20.20;99.90
17986;DHT22;9118;48.122;11.546;2022-07-29T03:20:31;20.10;99.90
17986;DHT22;9118;48.122;11.546;2022-07-29T03:22:59;20.10;99.90
17986;DHT22;9118;48.122;11.546;2022-07-29T03:25:26;20.10;99.90
17986;DHT22;9118;48.122;11.546;2022-07-29T03:27:54;21.50;99.90
17986;DHT22;9118;48.122;11.546;2022-07-29T03:30:23;20.00;99.90
17986;DHT22;9118;48.122;11.546;2022-07-29T03:32:54;20.00;99.90
17986;DHT22;9118;48.122;11.546;2022-07-29T03:35:21;20.00;99.90
17986;DHT22;9118;48.122;11.546;2022-07-29T03:37:49;19.90;99.90
17986;DHT22;9118;48.122;11.546;2022-07-29T03:40:22;19.90;99.90
17986;DHT22;9118;48.122;11.546;2022-07-29T03:42:52;19.90;99.90
17986;DHT22;9118;48.122;11.546;2022-07-29T03:45:21;19.90;99.90
17986;DHT22;9118;48.122;11.546;2022-07-29T03:48:00;19.90;99.90
17986;DHT22;9118;48.122;11.546;2022-07-29T03:50:32;19.80;99.90
17986;DHT22;9118;48.122;11.546;2022-07-29T03:53:01;19.80;99.90
17986;DHT22;9118;48.122;11.546;2022-07-29T03:55:36;19.80;99.90
17986;DHT22;9118;48.122;11.546;2022-07-29T03:58:07;19.80;99.90
17986;DHT22;9118;48.122;11.546;2022-07-29T04:00:36;19.80;99.90
17986;DHT22;9118;48.122;11.546;2022-07-29T04:03:19;19.70;99.90
17986;DHT22;9118;48.122;11.546;2022-07-29T04:05:59;19.80;99.90
17986;DHT22;9118;48.122;11.546;2022-07-29T04:08:32;19.70;99.90
17986;DHT22;9118;48.122;11.546;2022-07-29T04:11:00;19.70;99.90
17986;DHT22;9118;48.122;11.546;2022-07-29T04:13:31;19.70;99.90
17986;DHT22;9118;48.122;11.546;2022-07-29T04:16:01;19.70;99.90
17986;DHT22;9118;48.122;11.546;2022-07-29T04:18:34;19.70;99.90
17986;DHT22;9118;48.122;11.546;2022-07-29T04:21:03;19.60;99.90
17986;DHT22;9118;48.122;11.546;2022-07-29T04:23:31;19.70;99.90
17986;DHT22;9118;48.122;11.546;2022-07-29T04:25:59;19.80;99.90
17986;DHT22;9118;48.122;11.546;2022-07-29T04:28:27;19.80;99.90
17986;DHT22;9118;48.122;11.546;2022-07-29T04:30:58;19.80;99.90
17986;DHT22;9118;48.122;11.546;2022-07-29T04:33:25;19.90;99.90
17986;DHT22;9118;48.122;11.546;2022-07-29T04:36:07;20.00;99.90
17986;DHT22;9118;48.122;11.546;2022-07-29T04:38:40;20.00;99.90
17986;DHT22;9118;48.122;11.546;2022-07-29T04:41:10;20.10;99.90
17986;DHT22;9118;48.122;11.546;2022-07-29T04:43:37;20.20;99.90
17986;DHT22;9118;48.122;11.546;2022-07-29T04:46:15;20.30;99.90
17986;DHT22;9118;48.122;11.546;2022-07-29T04:48:46;20.40;99.90
17986;DHT22;9118;48.122;11.546;2022-07-29T04:51:19;20.40;99.90
17986;DHT22;9118;48.122;11.546;2022-07-29T04:53:47;20.40;99.90
17986;DHT22;9118;48.122;11.546;2022-07-29T04:56:19;20.50;99.90
17986;DHT22;9118;48.122;11.546;2022-07-29T04:58:49;20.50;99.90
17986;DHT22;9118;48.122;11.546;2022-07-29T05:01:17;20.60;99.90
17986;DHT22;9118;48.122;11.546;2022-07-29T05:03:49;20.60;99.90
17986;DHT22;9118;48.122;11.546;2022-07-29T05:06:18;20.60;99.90
17986;DHT22;9118;48.122;11.546;2022-07-29T05:08:44;20.60;99.90
17986;DHT22;9118;48.122;11.546;2022-07-29T05:11:12;20.60;99.90
17986;DHT22;9118;48.122;11.546;2022-07-29T05:13:39;20.50;99.90
17986;DHT22;9118;48.122;11.546;2022-07-29T05:16:08;20.50;99.90
17986;DHT22;9118;48.122;11.546;2022-07-29T05:18:35;20.40;99.90
17986;DHT22;9118;48.122;11.546;2022-07-29T05:21:05;20.60;99.90
17986;DHT22;9118;48.122;11.546;2022-07-29T05:23:33;20.30;99.90
17986;DHT22;9118;48.122;11.546;2022-07-29T05:26:00;20.30;99.90
17986;DHT22;9118;48.122;11.546;2022-07-29T05:28:28;20.20;99.90
17986;DHT22;9118;48.122;11.546;2022-07-29T05:30:55;20.20;99.90
17986;DHT22;9118;48.122;11.546;2022-07-29T05:33:22;20.20;99.90
17986;DHT22;9118;48.122;11.546;2022-07-29T05:35:52;20.30;99.90
17986;DHT22;9118;48.122;11.546;2022-07-29T05:38:20;20.30;99.90
17986;DHT22;9118;48.122;11.546;2022-07-29T05:40:48;20.30;99.90
17986;DHT22;9118;48.122;11.546;2022-07-29T05:43:16;20.30;99.90
17986;DHT22;9118;48.122;11.546;2022-07-29T05:45:47;20.30;99.90
17986;DHT22;9118;48.122;11.546;2022-07-29T05:48:14;20.30;99.90
17986;DHT22;9118;48.122;11.546;2022-07-29T05:50:42;20.30;99.90
17986;DHT22;9118;48.122;11.546;2022-07-29T05:53:09;20.40;99.90
17986;DHT22;9118;48.122;11.546;2022-07-29T05:55:36;20.40;99.90
17986;DHT22;9118;48.122;11.546;2022-07-29T05:58:04;20.40;99.90
17986;DHT22;9118;48.122;11.546;2022-07-29T06:00:32;20.40;99.90
17986;DHT22;9118;48.122;11.546;2022-07-29T06:03:01;20.40;99.90
17986;DHT22;9118;48.122;11.546;2022-07-29T06:05:29;20.50;99.90
17986;DHT22;9118;48.122;11.546;2022-07-29T06:07:56;20.50;99.90
17986;DHT22;9118;48.122;11.546;2022-07-29T06:10:23;20.50;99.90
17986;DHT22;9118;48.122;11.546;2022-07-29T06:12:51;20.50;99.90
17986;DHT22;9118;48.122;11.546;2022-07-29T06:15:19;20.60;99.90
17986;DHT22;9118;48.122;11.546;2022-07-29T06:17:47;20.60;99.90
17986;DHT22;9118;48.122;11.546;2022-07-29T06:20:14;20.70;99.90
17986;DHT22;9118;48.122;11.546;2022-07-29T06:22:41;20.70;99.90
17986;DHT22;9118;48.122;11.546;2022-07-29T06:25:08;20.80;99.90
17986;DHT22;9118;48.122;11.546;2022-07-29T06:27:36;20.80;99.90
17986;DHT22;9118;48.122;11.546;2022-07-29T06:30:04;20.90;99.90
17986;DHT22;9118;48.122;11.546;2022-07-29T06:32:38;21.00;99.90
17986;DHT22;9118;48.122;11.546;2022-07-29T06:35:12;20.50;99.90
17986;DHT22;9118;48.122;11.546;2022-07-29T06:37:39;21.10;99.90
17986;DHT22;9118;48.122;11.546;2022-07-29T06:40:07;21.20;99.90
17986;DHT22;9118;48.122;11.546;2022-07-29T06:42:51;21.30;99.90
17986;DHT22;9118;48.122;11.546;2022-07-29T06:45:18;21.40;99.90
17986;DHT22;9118;48.122;11.546;2022-07-29T06:47:52;21.50;99.90
17986;DHT22;9118;48.122;11.546;2022-07-29T06:50:25;21.50;99.90
17986;DHT22;9118;48.122;11.546;2022-07-29T06:52:52;21.50;99.90
17986;DHT22;9118;48.122;11.546;2022-07-29T06:55:19;21.70;99.90
17986;DHT22;9118;48.122;11.546;2022-07-29T06:57:46;21.70;99.90
17986;DHT22;9118;48.122;11.546;2022-07-29T07:00:16;21.70;99.90
17986;DHT22;9118;48.122;11.546;2022-07-29T07:02:43;21.70;99.90
17986;DHT22;9118;48.122;11.546;2022-07-29T07:05:11;21.80;99.90
17986;DHT22;9118;48.122;11.546;2022-07-29T07:07:38;21.80;99.90
17986;DHT22;9118;48.122;11.546;2022-07-29T07:10:06;21.80;99.90
17986;DHT22;9118;48.122;11.546;2022-07-29T07:12:33;22.00;99.90
17986;DHT22;9118;48.122;11.546;2022-07-29T07:15:00;21.90;99.90
17986;DHT22;9118;48.122;11.546;2022-07-29T07:17:27;21.90;99.90
17986;DHT22;9118;48.122;11.546;2022-07-29T07:19:54;22.00;99.90
17986;DHT22;9118;48.122;11.546;2022-07-29T07:22:23;22.00;99.90
17986;DHT22;9118;48.122;11.546;2022-07-29T07:24:50;22.10;99.90
17986;DHT22;9118;48.122;11.546;2022-07-29T07:27:17;22.20;99.90
17986;DHT22;9118;48.122;11.546;2022-07-29T07:29:44;22.20;99.90
17986;DHT22;9118;48.122;11.546;2022-07-29T07:32:11;22.20;99.90
17986;DHT22;9118;48.122;11.546;2022-07-29T07:34:38;22.30;99.90
17986;DHT22;9118;48.122;11.546;2022-07-29T07:37:05;22.30;99.90
17986;DHT22;9118;48.122;11.546;2022-07-29T07:39:34;22.30;99.90
17986;DHT22;9118;48.122;11.546;2022-07-29T07:42:01;22.30;99.90
17986;DHT22;9118;48.122;11.546;2022-07-29T07:44:28;22.40;99.90
17986;DHT22;9118;48.122;11.546;2022-07-29T07:46:55;22.50;99.90
17986;DHT22;9118;48.122;11.546;2022-07-29T07:49:22;22.60;99.90
17986;DHT22;9118;48.122;11.546;2022-07-29T07:51:49;22.70;99.90
17986;DHT22;9118;48.122;11.546;2022-07-29T07:54:18;22.70;99.90
17986;DHT22;9118;48.122;11.546;2022-07-29T07:56:46;22.80;99.90
17986;DHT22;9118;48.122;11.546;2022-07-29T07:59:15;22.80;99.90
17986;DHT22;9118;48.122;11.546;2022-07-29T08:01:42;22.80;99.90
17986;DHT22;9118;48.122;11.546;2022-07-29T08:04:09;22.80;99.90
17986;DHT22;9118;48.122;11.546;2022-07-29T08:06:36;22.90;99.90
17986;DHT22;9118;48.122;11.546;2022-07-29T08:09:03;22.90;99.90
17986;DHT22;9118;48.122;11.546;2022-07-29T08:11:31;23.00;99.90
17986;DHT22;9118;48.122;11.546;2022-07-29T08:13:59;23.00;99.90
17986;DHT22;9118;48.122;11.546;2022-07-29T08:16:27;23.10;99.90
17986;DHT22;9118;48.122;11.546;2022-07-29T08:18:54;23.10;99.90
17986;DHT22;9118;48.122;11.546;2022-07-29T08:21:23;23.10;99.90
17986;DHT22;9118;48.122;11.546;2022-07-29T08:23:51;23.10;99.90
17986;DHT22;9118;48.122;11.546;2022-07-29T08:26:39;23.30;99.90
17986;DHT22;9118;48.122;11.546;2022-07-29T08:29:07;23.40;99.90
17986;DHT22;9118;48.122;11.546;2022-07-29T08:31:35;23.60;99.90
17986;DHT22;9118;48.122;11.546;2022-07-29T08:34:02;23.60;99.90
17986;DHT22;9118;48.122;11.546;2022-07-29T08:36:29;23.70;99.90
17986;DHT22;9118;48.122;11.546;2022-07-29T08:38:57;24.00;99.90
17986;DHT22;9118;48.122;11.546;2022-07-29T08:41:24;24.10;99.90
17986;DHT22;9118;48.122;11.546;2022-07-29T08:43:52;24.10;99.90
17986;DHT22;9118;48.122;11.546;2022-07-29T08:46:21;24.10;99.90
17986;DHT22;9118;48.122;11.546;2022-07-29T08:48:49;24.20;99.90
17986;DHT22;9118;48.122;11.546;2022-07-29T08:51:20;24.20;99.90
17986;DHT22;9118;48.122;11.546;2022-07-29T08:53:49;24.40;99.90
17986;DHT22;9118;48.122;11.546;2022-07-29T08:56:18;24.50;99.90
17986;DHT22;9118;48.122;11.546;2022-07-29T08:58:46;24.70;99.90
17986;DHT22;9118;48.122;11.546;2022-07-29T09:01:16;24.80;99.90
17986;DHT22;9118;48.122;11.546;2022-07-29T09:03:46;24.90;99.90
17986;DHT22;9118;48.122;11.546;2022-07-29T09:06:13;24.80;99.90
17986;DHT22;9118;48.122;11.546;2022-07-29T09:08:41;24.80;99.90
17986;DHT22;9118;48.122;11.546;2022-07-29T09:11:08;24.90;99.90
17986;DHT22;9118;48.122;11.546;2022-07-29T09:13:37;24.90;99.90
17986;DHT22;9118;48.122;11.546;2022-07-29T09:16:05;24.90;99.90
17986;DHT22;9118;48.122;11.546;2022-07-29T09:18:38;25.00;99.90
17986;DHT22;9118;48.122;11.546;2022-07-29T09:21:08;25.20;99.90
17986;DHT22;9118;48.122;11.546;2022-07-29T09:24:04;25.30;99.90
17986;DHT22;9118;48.122;11.546;2022-07-29T09:26:35;25.40;99.90
17986;DHT22;9118;48.122;11.546;2022-07-29T09:29:08;25.70;99.90
17986;DHT22;9118;48.122;11.546;2022-07-29T09:31:38;25.80;99.90
17986;DHT22;9118;48.122;11.546;2022-07-29T09:34:05;26.10;99.90
17986;DHT22;9118;48.122;11.546;2022-07-29T09:36:40;26.10;99.90
17986;DHT22;9118;48.122;11.546;2022-07-29T09:39:07;26.00;99.90
17986;DHT22;9118;48.122;11.546;2022-07-29T09:41:45;25.70;99.90
17986;DHT22;9118;48.122;11.546;2022-07-29T09:44:12;25.50;99.90
17986;DHT22;9118;48.122;11.546;2022-07-29T09:46:41;25.20;99.90
17986;DHT22;9118;48.122;11.546;2022-07-29T09:49:18;25.00;99.90
17986;DHT22;9118;48.122;11.546;2022-07-29T09:51:47;24.90;99.90
17986;DHT22;9118;48.122;11.546;2022-07-29T09:54:23;24.90;99.90
17986;DHT22;9118;48.122;11.546;2022-07-29T09:56:51;24.90;99.90
17986;DHT22;9118;48.122;11.546;2022-07-29T09:59:18;25.00;99.90
17986;DHT22;9118;48.122;11.546;2022-07-29T10:01:48;25.10;99.90
17986;DHT22;9118;48.122;11.546;2022-07-29T10:04:16;25.20;99.90
17986;DHT22;9118;48.122;11.546;2022-07-29T10:06:57;25.20;99.90
17986;DHT22;9118;48.122;11.546;2022-07-29T10:09:25;25.20;99.90
17986;DHT22;9118;48.122;11.546;2022-07-29T10:12:10;25.10;99.90
17986;DHT22;9118;48.122;11.546;2022-07-29T10:14:40;25.10;99.90
17986;DHT22;9118;48.122;11.546;2022-07-29T10:17:08;25.10;99.90
17986;DHT22;9118;48.122;11.546;2022-07-29T10:19:37;25.10;99.90
17986;DHT22;9118;48.122;11.546;2022-07-29T10:22:06;25.10;99.90
17986;DHT22;9118;48.122;11.546;2022-07-29T10:24:34;25.10;99.90
17986;DHT22;9118;48.122;11.546;2022-07-29T10:27:04;25.10;99.90
17986;DHT22;9118;48.122;11.546;2022-07-29T10:29:31;25.20;99.90
17986;DHT22;9118;48.122;11.546;2022-07-29T10:32:16;25.30;99.90
17986;DHT22;9118;48.122;11.546;2022-07-29T10:35:04;25.70;99.90
17986;DHT22;9118;48.122;11.546;2022-07-29T10:37:46;25.50;99.90
17986;DHT22;9118;48.122;11.546;2022-07-29T10:40:28;25.60;99.90
17986;DHT22;9118;48.122;11.546;2022-07-29T10:43:19;25.50;99.90
17986;DHT22;9118;48.122;11.546;2022-07-29T10:45:49;25.60;99.90
17986;DHT22;9118;48.122;11.546;2022-07-29T10:48:22;25.60;99.90
17986;DHT22;9118;48.122;11.546;2022-07-29T10:50:53;25.70;99.90
17986;DHT22;9118;48.122;11.546;2022-07-29T10:53:46;25.80;99.90
17986;DHT22;9118;48.122;11.546;2022-07-29T10:56:25;25.80;99.90
17986;DHT22;9118;48.122;11.546;2022-07-29T10:59:23;25.90;99.90
17986;DHT22;9118;48.122;11.546;2022-07-29T11:01:52;26.10;99.90
17986;DHT22;9118;48.122;11.546;2022-07-29T11:07:20;25.90;99.90
17986;DHT22;9118;48.122;11.546;2022-07-29T11:10:22;26.00;99.90
17986;DHT22;9118;48.122;11.546;2022-07-29T11:12:50;26.00;99.90
17986;DHT22;9118;48.122;11.546;2022-07-29T11:15:19;26.00;99.90
17986;DHT22;9118;48.122;11.546;2022-07-29T11:18:06;26.10;99.90
17986;DHT22;9118;48.122;11.546;2022-07-29T11:20:39;26.00;99.90
17986;DHT22;9118;48.122;11.546;2022-07-29T11:23:26;26.10;99.90
17986;DHT22;9118;48.122;11.546;2022-07-29T11:26:17;26.30;99.90
17986;DHT22;9118;48.122;11.546;2022-07-29T11:28:57;26.60;99.90
17986;DHT22;9118;48.122;11.546;2022-07-29T11:31:38;26.80;99.90
17986;DHT22;9118;48.122;11.546;2022-07-29T11:34:21;27.10;99.90
17986;DHT22;9118;48.122;11.546;2022-07-29T11:37:20;27.30;99.90
17986;DHT22;9118;48.122;11.546;2022-07-29T11:40:08;27.40;99.90
17986;DHT22;9118;48.122;11.546;2022-07-29T11:42:42;27.60;99.90
17986;DHT22;9118;48.122;11.546;2022-07-29T11:45:11;27.70;99.90
17986;DHT22;9118;48.122;11.546;2022-07-29T11:47:41;27.70;99.90
17986;DHT22;9118;48.122;11.546;2022-07-29T11:50:10;27.40;99.90
17986;DHT22;9118;48.122;11.546;2022-07-29T11:52:39;27.10;99.90
17986;DHT22;9118;48.122;11.546;2022-07-29T11:55:12;26.70;99.90
17986;DHT22;9118;48.122;11.546;2022-07-29T11:57:48;26.60;99.90
17986;DHT22;9118;48.122;11.546;2022-07-29T12:00:30;26.60;99.90
17986;DHT22;9118;48.122;11.546;2022-07-29T12:02:59;26.80;99.90
17986;DHT22;9118;48.122;11.546;2022-07-29T12:05:34;27.00;99.90
17986;DHT22;9118;48.122;11.546;2022-07-29T12:08:09;27.10;99.90
17986;DHT22;9118;48.122;11.546;2022-07-29T12:10:36;27.20;99.90
17986;DHT22;9118;48.122;11.546;2022-07-29T12:13:04;27.50;99.90
17986;DHT22;9118;48.122;11.546;2022-07-29T12:15:32;27.70;99.90
17986;DHT22;9118;48.122;11.546;2022-07-29T12:18:09;27.80;99.90
17986;DHT22;9118;48.122;11.546;2022-07-29T12:20:37;27.90;99.90
17986;DHT22;9118;48.122;11.546;2022-07-29T12:23:06;27.80;99.90
17986;DHT22;9118;48.122;11.546;2022-07-29T12:25:34;27.50;99.90
17986;DHT22;9118;48.122;11.546;2022-07-29T12:28:05;27.20;99.90
17986;DHT22;9118;48.122;11.546;2022-07-29T12:30:38;27.10;99.90
17986;DHT22;9118;48.122;11.546;2022-07-29T12:33:14;27.30;99.90
17986;DHT22;9118;48.122;11.546;2022-07-29T12:35:42;27.30;99.90
17986;DHT22;9118;48.122;11.546;2022-07-29T12:38:10;27.30;99.90
17986;DHT22;9118;48.122;11.546;2022-07-29T12:40:38;27.10;99.90
17986;DHT22;9118;48.122;11.546;2022-07-29T12:43:07;27.20;99.90
17986;DHT22;9118;48.122;11.546;2022-07-29T12:45:35;27.40;99.90
17986;DHT22;9118;48.122;11.546;2022-07-29T12:48:03;27.50;99.90
17986;DHT22;9118;48.122;11.546;2022-07-29T12:50:30;27.70;99.90
17986;DHT22;9118;48.122;11.546;2022-07-29T12:53:09;27.50;99.90
17986;DHT22;9118;48.122;11.546;2022-07-29T12:55:41;27.40;99.90
17986;DHT22;9118;48.122;11.546;2022-07-29T12:58:10;27.20;99.90
17986;DHT22;9118;48.122;11.546;2022-07-29T13:00:37;26.90;99.90
17986;DHT22;9118;48.122;11.546;2022-07-29T13:03:04;26.60;99.90
17986;DHT22;9118;48.122;11.546;2022-07-29T13:05:42;26.60;99.90
17986;DHT22;9118;48.122;11.546;2022-07-29T13:08:11;26.60;99.90
17986;DHT22;9118;48.122;11.546;2022-07-29T13:10:39;26.40;99.90
17986;DHT22;9118;48.122;11.546;2022-07-29T13:13:07;26.30;99.90
17986;DHT22;9118;48.122;11.546;2022-07-29T13:15:39;26.10;99.90
17986;DHT22;9118;48.122;11.546;2022-07-29T13:18:27;26.10;99.90
17986;DHT22;9118;48.122;11.546;2022-07-29T13:20:55;26.00;99.90
17986;DHT22;9118;48.122;11.546;2022-07-29T13:23:22;25.90;99.90
17986;DHT22;9118;48.122;11.546;2022-07-29T13:25:49;25.90;99.90
17986;DHT22;9118;48.122;11.546;2022-07-29T13:28:16;25.80;99.90
17986;DHT22;9118;48.122;11.546;2022-07-29T13:30:45;25.70;99.90
17986;DHT22;9118;48.122;11.546;2022-07-29T13:33:12;25.60;99.90
17986;DHT22;9118;48.122;11.546;2022-07-29T13:35:41;25.60;99.90
17986;DHT22;9118;48.122;11.546;2022-07-29T13:38:07;25.50;99.90
17986;DHT22;9118;48.122;11.546;2022-07-29T13:40:34;25.40;99.90
17986;DHT22;9118;48.122;11.546;2022-07-29T13:43:01;25.40;99.90
17986;DHT22;9118;48.122;11.546;2022-07-29T13:45:28;25.40;99.90
17986;DHT22;9118;48.122;11.546;2022-07-29T13:47:57;25.40;99.90
17986;DHT22;9118;48.122;11.546;2022-07-29T13:50:24;25.40;99.90
17986;DHT22;9118;48.122;11.546;2022-07-29T13:52:50;25.40;99.90
17986;DHT22;9118;48.122;11.546;2022-07-29T13:55:18;25.50;99.90
17986;DHT22;9118;48.122;11.546;2022-07-29T13:57:45;25.60;99.90
17986;DHT22;9118;48.122;11.546;2022-07-29T14:00:13;25.60;99.90
17986;DHT22;9118;48.122;11.546;2022-07-29T14:02:41;25.80;99.90
17986;DHT22;9118;48.122;11.546;2022-07-29T14:05:10;26.00;99.90
17986;DHT22;9118;48.122;11.546;2022-07-29T14:07:37;26.10;99.90
17986;DHT22;9118;48.122;11.546;2022-07-29T14:10:06;26.20;99.90
17986;DHT22;9118;48.122;11.546;2022-07-29T14:12:33;26.10;99.90
17986;DHT22;9118;48.122;11.546;2022-07-29T14:15:00;26.00;99.90
17986;DHT22;9118;48.122;11.546;2022-07-29T14:17:27;26.00;99.90
17986;DHT22;9118;48.122;11.546;2022-07-29T14:19:54;26.00;99.90
17986;DHT22;9118;48.122;11.546;2022-07-29T14:22:24;26.00;99.90
17986;DHT22;9118;48.122;11.546;2022-07-29T14:24:51;25.90;99.90
17986;DHT22;9118;48.122;11.546;2022-07-29T14:27:21;26.00;99.90
17986;DHT22;9118;48.122;11.546;2022-07-29T14:29:48;25.90;99.90
17986;DHT22;9118;48.122;11.546;2022-07-29T14:32:18;25.80;99.90
17986;DHT22;9118;48.122;11.546;2022-07-29T14:34:45;26.10;99.90
17986;DHT22;9118;48.122;11.546;2022-07-29T14:37:12;26.40;99.90
17986;DHT22;9118;48.122;11.546;2022-07-29T14:39:41;26.40;99.90
17986;DHT22;9118;48.122;11.546;2022-07-29T14:42:09;26.20;99.90
17986;DHT22;9118;48.122;11.546;2022-07-29T14:44:36;26.40;99.90
17986;DHT22;9118;48.122;11.546;2022-07-29T14:47:03;26.70;99.90
17986;DHT22;9118;48.122;11.546;2022-07-29T14:49:29;26.70;99.90
17986;DHT22;9118;48.122;11.546;2022-07-29T14:51:59;26.60;99.90
17986;DHT22;9118;48.122;11.546;2022-07-29T14:54:26;26.30;99.90
17986;DHT22;9118;48.122;11.546;2022-07-29T14:56:54;25.90;99.90
17986;DHT22;9118;48.122;11.546;2022-07-29T14:59:22;25.70;99.90
17986;DHT22;9118;48.122;11.546;2022-07-29T15:01:49;25.50;99.90
17986;DHT22;9118;48.122;11.546;2022-07-29T15:04:16;25.40;99.90
17986;DHT22;9118;48.122;11.546;2022-07-29T15:06:43;25.30;99.90
17986;DHT22;9118;48.122;11.546;2022-07-29T15:09:10;25.30;99.90
17986;DHT22;9118;48.122;11.546;2022-07-29T15:11:40;25.30;99.90
17986;DHT22;9118;48.122;11.546;2022-07-29T15:14:09;25.40;99.90
17986;DHT22;9118;48.122;11.546;2022-07-29T15:16:37;25.40;99.90
17986;DHT22;9118;48.122;11.546;2022-07-29T15:19:05;25.30;99.90
17986;DHT22;9118;48.122;11.546;2022-07-29T15:21:32;25.20;99.90
17986;DHT22;9118;48.122;11.546;2022-07-29T15:23:59;25.10;99.90
17986;DHT22;9118;48.122;11.546;2022-07-29T15:26:26;25.00;99.90
17986;DHT22;9118;48.122;11.546;2022-07-29T15:28:53;25.00;99.90
17986;DHT22;9118;48.122;11.546;2022-07-29T15:31:22;25.00;99.90
17986;DHT22;9118;48.122;11.546;2022-07-29T15:33:49;24.90;99.90
17986;DHT22;9118;48.122;11.546;2022-07-29T15:36:16;24.90;99.90
17986;DHT22;9118;48.122;11.546;2022-07-29T15:38:43;24.90;99.90
17986;DHT22;9118;48.122;11.546;2022-07-29T15:41:13;24.80;99.90
17986;DHT22;9118;48.122;11.546;2022-07-29T15:43:43;24.80;99.90
17986;DHT22;9118;48.122;11.546;2022-07-29T15:46:13;24.80;99.90
17986;DHT22;9118;48.122;11.546;2022-07-29T15:49:00;24.00;99.90
17986;DHT22;9118;48.122;11.546;2022-07-29T15:51:28;24.80;99.90
17986;DHT22;9118;48.122;11.546;2022-07-29T15:53:55;24.80;99.90